Pagina principală
METAR-TAF:

METAR-TAF

Aeroporturi :

Puerto Maldonado, Peru

Latitudine: 12-38S, longitudine: 069-12W, elevație: 265 m

Observații meteo curente

Raportul a fost făcut în urmă cu 10 ore și 10 de minute, la 23:00 UTC
Vânt 3 kt de la Sud/Sud-vest, variabil între Sud/Sud-est și Vest/Sud-vest
Temperatură 25°C
Umiditate 94%
Presiune 1008 hPa
Vizibilitate de 10 km sau mai mult
Nori puțini la o înălțime de 2000 picior

METAR: SPTU 132300Z 21003KT 160V240 9999 FEW020 25/24 Q1008 RMK BIRD HAZARD RWY 01/19 PP000

Ora: 04:10 (09:10 UTC)

Prognoză

Raportul a fost făcut în urmă cu 16 ore și 10 de minute, la 17:00 UTC
Prognoză valabilă de la 13 ora 18 UTC la 14 ora 18 UTC
Vânt 9 kt de la Nord/Nord-vest
Vizibilitate de 10 km sau mai mult
Nori împrăștiați la o înălțime de 2000 picior
Temporar
de la 13 ora 19 UTC la 13 ora 21 UTC
Vânt 12 kt de la Sud/Sud-est

TAF: SPTU 131700Z 1318/1418 33009KT 9999 SCT020 TX32/1320Z TN21/1411Z TEMPO 1319/1321 15012KT

Observații și prognoze meteo pentru peste 4.000 de aeroporturi (rapoarte METAR și TAF).

Stațiile disponibile sunt reprezentate pe hartă prin puncte galbene și roșii.

Țineți indicatorul mouse-ului pe punctul dorit pentru a vedea denumirea stației.

Apoi, faceți clic pentru a vedea observațiile și prognozele meteorologice.

Pentru a schimba harta: Pentru mărire, faceți clic pe butoanele verzi cu cruce neagră; pentru micșorare, pe butonul verde cu o liniuță; pentru hărți învecinate, pe săgețile verzi.


METAR-TAF: